Rock Springs Sweetwater County Airport Rock Springs US
ICAO: KRKS
IATA: RKS
Category: Medium
Scheduled Services: Yes

Elevation: 6764 ft
TransAlt. 18000 ft.

Airport Communications:
ASOS:118.375
CASPER RDO:122.6
CTAF/UNICOM:122.8

KRKS Zoom In..

Runways:

(A) RW 03 length 5228 ft width 75 ft
---- / hdg 32

(B) RW 09 length 10000 ft width 150 ft
---- / hdg 90

(C) RW 21 length 5228 ft width 75 ft
---- / hdg 212

(D) RW 27 length 10000 ft width 150 ft
ILS 109.30 / hdg 270

Location; KRKS
Day. 13 / Time. 12.54 Zulu
* Altimeter: 30.07
* Temperature: 17° c. 62.6°f.
* Wind from: 200° Speed 06 kn.
Dewpoint: 01° c.
Visibility: 10 Statute Miles.
Clouds: Clear (automated report).

KRKS 131254Z AUTO 20006KT 10SM CLR 17/01 A3007 RMK AO2 SLP085 T01670006

Going to: --> -->


Wind From 200°
Speed 06 kn.

 
 
jpsmedia worldairports.se 2020   terms of use